Time;durP1;ratioP1;P1;durP2;ratioP2;P2;SDS_P1;SDS_P2;PMS_P1;PMS_P2;Temp;Humidity;BMP_temperature;BMP_pressure;BME280_temperature;BME280_humidity;BME280_pressure;Samples;Min_cycle;Max_cycle;Signal;HPM_P1;HPM_P2
2022/10/18 00:01:55;;;;;;;14.13;5.97;;;;;;;;;;4993204;28;20518;-65
2022/10/18 00:04:20;;;;;;;12.80;5.78;;;;;;;;;;4991510;28;20388;-65
2022/10/18 00:06:45;;;;;;;14.07;7.03;;;;;;;;;;4992496;28;20022;-65
2022/10/18 00:09:10;;;;;;;13.23;6.47;;;;;;;;;;4991930;28;20766;-65
2022/10/18 00:11:36;;;;;;;11.70;6.63;;;;;;;;;;4995030;28;20284;-65
2022/10/18 00:14:02;;;;;;;11.27;6.30;;;;;;;;;;4993025;28;20037;-65
2022/10/18 00:16:27;;;;;;;16.42;6.22;;;;;;;;;;4992414;28;20084;-65
2022/10/18 00:18:52;;;;;;;14.23;6.47;;;;;;;;;;4993590;28;20034;-65
2022/10/18 00:21:19;;;;;;;14.97;6.67;;;;;;;;;;4991878;28;20046;-65
2022/10/18 00:23:45;;;;;;;17.25;7.25;;;;;;;;;;4992207;28;20273;-65
2022/10/18 00:26:12;;;;;;;14.20;7.35;;;;;;;;;;4991875;28;20044;-65
2022/10/18 00:28:37;;;;;;;14.63;7.43;;;;;;;;;;4993084;28;20049;-65
2022/10/18 00:31:09;;;;;;;15.63;7.45;;;;;;;;;;4992807;28;20053;-65
2022/10/18 00:33:34;;;;;;;15.93;7.22;;;;;;;;;;4992126;28;20483;-65
2022/10/18 00:35:59;;;;;;;13.40;7.20;;;;;;;;;;4991450;28;20032;-65
2022/10/18 00:38:24;;;;;;;14.53;7.10;;;;;;;;;;4992972;28;20254;-65
2022/10/18 00:40:49;;;;;;;13.67;7.27;;;;;;;;;;4993058;28;20269;-65
2022/10/18 00:43:16;;;;;;;15.73;7.87;;;;;;;;;;4992305;28;20270;-65
2022/10/18 00:45:41;;;;;;;16.77;6.65;;;;;;;;;;4992189;28;20774;-65
2022/10/18 00:48:06;;;;;;;20.80;8.20;;;;;;;;;;4991667;28;20029;-65
2022/10/18 00:50:32;;;;;;;18.05;7.03;;;;;;;;;;4990391;28;20262;-65
2022/10/18 00:53:00;;;;;;;26.40;8.63;;;;;;;;;;4994781;28;20015;-65
2022/10/18 00:55:26;;;;;;;13.43;7.13;;;;;;;;;;4990025;28;20018;-65
2022/10/18 00:57:52;;;;;;;15.45;7.47;;;;;;;;;;4992126;28;20087;-65
2022/10/18 01:00:17;;;;;;;16.63;8.15;;;;;;;;;;4992273;28;20026;-65
2022/10/18 01:02:43;;;;;;;14.98;8.18;;;;;;;;;;4995775;28;20467;-65
2022/10/18 01:05:10;;;;;;;15.38;8.75;;;;;;;;;;4994339;28;20030;-65
2022/10/18 01:07:47;;;;;;;16.48;7.78;;;;;;;;;;4991653;28;20014;-65
2022/10/18 01:10:17;;;;;;;19.52;8.60;;;;;;;;;;4992021;28;20495;-65
2022/10/18 01:12:48;;;;;;;19.00;8.38;;;;;;;;;;4991894;28;20038;-65
2022/10/18 01:15:18;;;;;;;16.40;7.65;;;;;;;;;;4992192;28;20102;-65
2022/10/18 01:17:43;;;;;;;;;;;;;;;;;;4991672;28;20069;-65
2022/10/18 01:20:18;;;;;;;20.45;8.35;;;;;;;;;;4991589;28;19910;-65
2022/10/18 01:22:53;;;;;;;26.73;9.25;;;;;;;;;;4991553;28;20057;-65
2022/10/18 01:25:33;;;;;;;21.17;8.18;;;;;;;;;;4991332;28;20029;-64
2022/10/18 01:28:07;;;;;;;17.02;8.48;;;;;;;;;;4988198;28;20018;-65
2022/10/18 01:30:37;;;;;;;18.55;8.75;;;;;;;;;;4995074;28;20028;-65
2022/10/18 01:33:06;;;;;;;15.98;8.80;;;;;;;;;;4994597;28;20458;-65
2022/10/18 01:35:33;;;;;;;20.25;8.55;;;;;;;;;;4992254;28;20033;-65
2022/10/18 01:38:01;;;;;;;19.95;8.75;;;;;;;;;;4991930;28;20054;-65
2022/10/18 01:40:28;;;;;;;18.30;9.52;;;;;;;;;;4988517;28;20378;-65
2022/10/18 01:42:54;;;;;;;22.30;8.50;;;;;;;;;;4990563;28;20018;-65
2022/10/18 01:45:20;;;;;;;18.45;9.55;;;;;;;;;;4990589;28;20081;-65
2022/10/18 01:47:46;;;;;;;20.95;9.38;;;;;;;;;;4991008;28;20478;-65
2022/10/18 01:50:11;;;;;;;20.63;10.00;;;;;;;;;;4990983;28;20050;-65
2022/10/18 01:52:46;;;;;;;21.50;8.40;;;;;;;;;;4991540;28;20483;-65
2022/10/18 01:55:12;;;;;;;18.15;9.00;;;;;;;;;;4991082;28;20033;-65
2022/10/18 01:57:40;;;;;;;21.42;8.70;;;;;;;;;;4997060;28;20018;-65
2022/10/18 02:00:17;;;;;;;16.92;8.40;;;;;;;;;;4992885;28;20104;-65
2022/10/18 02:02:47;;;;;;;19.65;8.20;;;;;;;;;;4991127;28;20018;-65
2022/10/18 02:05:16;;;;;;;16.23;8.17;;;;;;;;;;4990600;28;20101;-65
2022/10/18 02:07:47;;;;;;;19.27;7.03;;;;;;;;;;4990999;28;20600;-65
2022/10/18 02:10:17;;;;;;;14.32;8.45;;;;;;;;;;4989254;28;20038;-65
2022/10/18 02:12:43;;;;;;;17.48;8.10;;;;;;;;;;4993900;28;20383;-65
2022/10/18 02:15:10;;;;;;;16.35;8.15;;;;;;;;;;4991440;28;20037;-65
2022/10/18 02:17:36;;;;;;;15.27;8.27;;;;;;;;;;4992860;28;20029;-65
2022/10/18 02:20:04;;;;;;;16.70;8.20;;;;;;;;;;4989786;28;20025;-65
2022/10/18 02:22:31;;;;;;;16.98;8.15;;;;;;;;;;4989329;28;20496;-65
2022/10/18 02:24:58;;;;;;;18.23;8.65;;;;;;;;;;4991407;28;20076;-65
2022/10/18 02:27:23;;;;;;;17.52;8.18;;;;;;;;;;4991804;28;20030;-65
2022/10/18 02:29:49;;;;;;;16.48;8.13;;;;;;;;;;4989437;28;20022;-65
2022/10/18 02:32:32;;;;;;;16.58;8.07;;;;;;;;;;4990824;28;20081;-65
2022/10/18 02:35:09;;;;;;;21.20;8.90;;;;;;;;;;4989607;28;20066;-65
2022/10/18 02:37:37;;;;;;;19.27;7.30;;;;;;;;;;4989296;28;20025;-65
2022/10/18 02:40:03;;;;;;;17.50;7.05;;;;;;;;;;4992451;28;20467;-65
2022/10/18 02:42:36;;;;;;;17.40;8.00;;;;;;;;;;4991099;28;20057;-65
2022/10/18 02:45:01;;;;;;;20.40;7.70;;;;;;;;;;4989848;28;20022;-65
2022/10/18 02:47:26;;;;;;;14.88;7.47;;;;;;;;;;4990054;28;20018;-65
2022/10/18 02:49:51;;;;;;;17.90;8.47;;;;;;;;;;4989623;28;20026;-65
2022/10/18 02:52:16;;;;;;;18.67;8.40;;;;;;;;;;4993179;28;20273;-65
2022/10/18 02:54:42;;;;;;;16.40;8.27;;;;;;;;;;4995492;28;20690;-65
2022/10/18 02:57:07;;;;;;;22.53;7.73;;;;;;;;;;4990079;28;20031;-65
2022/10/18 02:59:32;;;;;;;18.08;8.48;;;;;;;;;;4988762;28;20681;-66
2022/10/18 03:01:57;;;;;;;21.90;7.97;;;;;;;;;;4990384;28;20022;-65
2022/10/18 03:04:23;;;;;;;18.33;8.70;;;;;;;;;;4989917;28;20068;-65
2022/10/18 03:06:48;;;;;;;17.60;7.93;;;;;;;;;;4996932;28;20054;-65
2022/10/18 03:09:13;;;;;;;17.38;7.60;;;;;;;;;;4989904;28;20643;-65
2022/10/18 03:11:38;;;;;;;18.80;8.00;;;;;;;;;;4990090;28;20459;-65
2022/10/18 03:14:03;;;;;;;18.83;8.50;;;;;;;;;;4990575;28;20041;-65
2022/10/18 03:16:29;;;;;;;18.40;7.67;;;;;;;;;;4989072;28;20034;-65
2022/10/18 03:18:54;;;;;;;17.25;7.55;;;;;;;;;;4989326;28;20654;-66
2022/10/18 03:21:19;;;;;;;20.17;8.53;;;;;;;;;;4990664;28;20041;-65
2022/10/18 03:23:44;;;;;;;19.67;8.07;;;;;;;;;;4993832;28;20618;-65
2022/10/18 03:26:09;;;;;;;25.07;9.53;;;;;;;;;;4991909;28;20476;-65
2022/10/18 03:28:34;;;;;;;17.00;8.83;;;;;;;;;;4997624;28;20312;-66
2022/10/18 03:31:01;;;;;;;22.77;10.20;;;;;;;;;;4993924;28;20258;-65
2022/10/18 03:33:26;;;;;;;21.65;9.32;;;;;;;;;;4990569;28;20769;-66
2022/10/18 03:35:51;;;;;;;21.48;9.13;;;;;;;;;;4997189;28;20201;-65
2022/10/18 03:38:16;;;;;;;22.43;9.47;;;;;;;;;;4993612;28;20105;-65
2022/10/18 03:40:41;;;;;;;22.43;10.57;;;;;;;;;;4993193;28;20285;-66
2022/10/18 03:43:07;;;;;;;18.53;9.07;;;;;;;;;;4994131;28;20085;-66
2022/10/18 03:45:32;;;;;;;19.98;8.75;;;;;;;;;;4992370;28;20289;-65
2022/10/18 03:47:57;;;;;;;21.67;8.80;;;;;;;;;;4991982;28;20023;-65
2022/10/18 03:50:22;;;;;;;21.53;8.73;;;;;;;;;;4997213;28;20270;-65
2022/10/18 03:52:47;;;;;;;16.63;8.53;;;;;;;;;;5046620;23;20308;-69
2022/10/18 03:55:12;;;;;;;21.60;10.40;;;;;;;;;;5031873;28;20272;-69
2022/10/18 03:57:38;;;;;;;25.47;13.83;;;;;;;;;;5027304;28;20382;-67
2022/10/18 04:00:03;;;;;;;24.07;10.80;;;;;;;;;;5028793;28;20299;-69
2022/10/18 04:02:28;;;;;;;21.98;11.63;;;;;;;;;;5025611;28;20269;-68
2022/10/18 04:04:53;;;;;;;32.57;12.67;;;;;;;;;;5027743;28;20502;-67
2022/10/18 04:07:19;;;;;;;26.65;12.60;;;;;;;;;;5025365;28;20372;-67
2022/10/18 04:09:44;;;;;;;18.03;9.97;;;;;;;;;;5029414;28;20037;-67
2022/10/18 04:12:09;;;;;;;25.37;12.63;;;;;;;;;;5027137;28;20280;-68
2022/10/18 04:14:34;;;;;;;22.27;9.77;;;;;;;;;;5032138;28;20679;-67
2022/10/18 04:16:59;;;;;;;15.20;8.57;;;;;;;;;;5026661;28;20284;-68
2022/10/18 04:19:26;;;;;;;14.53;7.03;;;;;;;;;;5026406;28;20304;-66
2022/10/18 04:21:51;;;;;;;21.05;8.13;;;;;;;;;;5026689;28;20735;-68
2022/10/18 04:24:16;;;;;;;22.93;8.03;;;;;;;;;;5027943;28;20120;-69
2022/10/18 04:26:42;;;;;;;14.07;7.60;;;;;;;;;;5029816;28;20297;-68
2022/10/18 04:29:07;;;;;;;24.85;7.88;;;;;;;;;;5030345;28;20333;-66
2022/10/18 04:31:32;;;;;;;31.80;8.23;;;;;;;;;;5026893;28;20170;-68
2022/10/18 04:33:57;;;;;;;25.02;8.60;;;;;;;;;;5025523;28;20284;-66
2022/10/18 04:36:22;;;;;;;16.47;7.60;;;;;;;;;;5027897;28;20018;-68
2022/10/18 04:38:48;;;;;;;21.03;8.13;;;;;;;;;;5028295;28;20272;-66
2022/10/18 04:41:13;;;;;;;17.23;8.30;;;;;;;;;;5031556;28;20616;-67
2022/10/18 04:43:38;;;;;;;15.13;7.63;;;;;;;;;;5027041;28;20268;-67
2022/10/18 04:46:03;;;;;;;18.17;8.40;;;;;;;;;;5025609;28;20465;-67
2022/10/18 04:48:28;;;;;;;17.25;7.60;;;;;;;;;;5020824;28;20443;-67
2022/10/18 04:50:54;;;;;;;16.45;8.02;;;;;;;;;;5017870;28;20485;-66
2022/10/18 04:53:19;;;;;;;14.87;7.33;;;;;;;;;;5019354;28;20123;-67
2022/10/18 04:55:48;;;;;;;18.87;7.70;;;;;;;;;;5022369;28;20366;-66
2022/10/18 04:58:13;;;;;;;15.82;8.45;;;;;;;;;;5027082;28;20276;-66
2022/10/18 05:00:38;;;;;;;16.23;8.20;;;;;;;;;;5016581;28;20095;-66
2022/10/18 05:03:03;;;;;;;17.27;8.70;;;;;;;;;;5012621;28;20088;-67
2022/10/18 05:05:29;;;;;;;21.77;8.03;;;;;;;;;;5019305;28;20022;-67
2022/10/18 05:07:54;;;;;;;20.50;8.63;;;;;;;;;;5021352;28;20257;-67
2022/10/18 05:10:19;;;;;;;19.00;8.67;;;;;;;;;;5026106;28;20312;-67
2022/10/18 05:12:44;;;;;;;24.33;9.15;;;;;;;;;;5021255;28;20276;-67
2022/10/18 05:15:09;;;;;;;20.10;8.80;;;;;;;;;;5025990;28;20037;-67
2022/10/18 05:17:35;;;;;;;17.33;8.00;;;;;;;;;;5028943;28;20278;-66
2022/10/18 05:20:00;;;;;;;19.95;8.60;;;;;;;;;;5028358;28;20284;-66
2022/10/18 05:22:25;;;;;;;21.58;9.05;;;;;;;;;;5020040;28;20032;-67
2022/10/18 05:24:50;;;;;;;20.73;9.98;;;;;;;;;;5019349;28;20033;-67
2022/10/18 05:27:16;;;;;;;19.10;9.40;;;;;;;;;;5039938;28;20460;-67
2022/10/18 05:29:41;;;;;;;21.77;9.17;;;;;;;;;;5019327;28;20292;-67
2022/10/18 05:32:06;;;;;;;24.48;9.50;;;;;;;;;;5024144;28;20272;-67
2022/10/18 05:34:31;;;;;;;25.25;9.70;;;;;;;;;;5011743;28;20053;-66
2022/10/18 05:36:57;;;;;;;26.85;8.85;;;;;;;;;;5023119;28;20025;-67
2022/10/18 05:39:22;;;;;;;20.00;8.88;;;;;;;;;;5023516;28;20025;-67
2022/10/18 05:41:47;;;;;;;25.27;9.55;;;;;;;;;;5025901;28;20033;-67
2022/10/18 05:44:13;;;;;;;25.40;9.40;;;;;;;;;;5018306;28;20030;-67
2022/10/18 05:46:38;;;;;;;23.87;10.20;;;;;;;;;;5016525;28;20033;-66
2022/10/18 05:49:03;;;;;;;23.17;10.00;;;;;;;;;;5025355;28;20280;-67
2022/10/18 05:51:28;;;;;;;21.53;9.77;;;;;;;;;;5026777;28;20782;-67
2022/10/18 05:53:53;;;;;;;22.93;10.47;;;;;;;;;;5027165;28;20345;-67
2022/10/18 05:56:19;;;;;;;25.05;10.23;;;;;;;;;;5024768;28;20276;-64
2022/10/18 05:58:48;;;;;;;21.20;9.00;;;;;;;;;;5026707;28;20034;-64
2022/10/18 06:01:13;;;;;;;19.08;9.60;;;;;;;;;;5023806;28;20759;-67
2022/10/18 06:03:38;;;;;;;21.60;8.87;;;;;;;;;;5022119;28;20033;-67
2022/10/18 06:06:07;;;;;;;23.13;9.83;;;;;;;;;;5019634;28;20296;-67
2022/10/18 06:08:33;;;;;;;24.13;9.38;;;;;;;;;;5021390;28;20817;-66
2022/10/18 06:10:58;;;;;;;24.80;10.27;;;;;;;;;;5029969;28;20017;-66
2022/10/18 06:13:23;;;;;;;21.52;8.88;;;;;;;;;;5024916;28;20470;-67
2022/10/18 06:15:49;;;;;;;20.60;10.47;;;;;;;;;;5021808;28;20025;-65
2022/10/18 06:18:14;;;;;;;24.35;9.85;;;;;;;;;;5022190;28;20271;-67
2022/10/18 06:20:40;;;;;;;18.15;8.65;;;;;;;;;;5023948;28;20026;-67
2022/10/18 06:23:05;;;;;;;17.43;8.97;;;;;;;;;;5027559;28;20068;-67
2022/10/18 06:25:30;;;;;;;21.10;10.48;;;;;;;;;;5018330;28;20288;-67
2022/10/18 06:27:55;;;;;;;16.57;8.50;;;;;;;;;;5023411;28;20060;-67
2022/10/18 06:30:20;;;;;;;19.07;9.23;;;;;;;;;;5026180;28;20056;-65
2022/10/18 06:32:45;;;;;;;18.73;9.17;;;;;;;;;;5019843;28;20272;-67
2022/10/18 06:35:11;;;;;;;26.33;9.63;;;;;;;;;;5021384;28;20276;-66
2022/10/18 06:37:37;;;;;;;20.93;9.47;;;;;;;;;;5028014;28;20272;-67
2022/10/18 06:40:02;;;;;;;16.73;9.30;;;;;;;;;;5028566;28;20284;-67
2022/10/18 06:42:27;;;;;;;25.10;8.95;;;;;;;;;;5023545;28;20057;-67
2022/10/18 06:44:52;;;;;;;21.92;8.93;;;;;;;;;;5021976;28;20018;-67
2022/10/18 06:47:18;;;;;;;22.60;8.23;;;;;;;;;;5026401;28;20025;-67
2022/10/18 06:49:43;;;;;;;20.67;10.05;;;;;;;;;;5022281;28;20794;-67
2022/10/18 06:52:08;;;;;;;21.67;8.73;;;;;;;;;;5024016;28;20401;-65
2022/10/18 06:54:33;;;;;;;18.73;8.73;;;;;;;;;;5017271;28;20367;-67
2022/10/18 06:57:01;;;;;;;17.55;9.15;;;;;;;;;;5021239;28;20105;-67
2022/10/18 06:59:26;;;;;;;19.55;9.98;;;;;;;;;;5027515;28;20036;-66
2022/10/18 07:01:51;;;;;;;26.45;10.98;;;;;;;;;;5020675;28;20022;-67
2022/10/18 07:04:16;;;;;;;20.07;9.73;;;;;;;;;;5028152;28;20033;-66
2022/10/18 07:06:42;;;;;;;18.42;9.23;;;;;;;;;;5030120;28;20300;-67
2022/10/18 07:09:07;;;;;;;20.43;9.53;;;;;;;;;;5022591;28;20056;-67
2022/10/18 07:11:32;;;;;;;20.60;10.17;;;;;;;;;;5024890;28;20306;-67
2022/10/18 07:14:04;;;;;;;21.35;9.25;;;;;;;;;;5033629;28;20625;-67
2022/10/18 07:16:30;;;;;;;20.75;8.90;;;;;;;;;;5026547;28;20498;-67
2022/10/18 07:18:56;;;;;;;31.25;10.77;;;;;;;;;;5025366;28;20033;-67
2022/10/18 07:21:22;;;;;;;22.38;10.02;;;;;;;;;;5024884;28;20375;-67
2022/10/18 07:23:48;;;;;;;15.75;8.38;;;;;;;;;;5033543;28;20029;-67
2022/10/18 07:26:13;;;;;;;16.63;8.32;;;;;;;;;;5033453;28;20025;-67
2022/10/18 07:28:39;;;;;;;19.10;8.43;;;;;;;;;;5032901;28;20030;-67
2022/10/18 07:31:05;;;;;;;17.42;7.97;;;;;;;;;;5027872;28;20166;-67
2022/10/18 07:33:30;;;;;;;17.10;8.30;;;;;;;;;;5025461;28;20539;-66
2022/10/18 07:35:59;;;;;;;17.25;8.73;;;;;;;;;;5025000;28;20029;-67
2022/10/18 07:38:24;;;;;;;20.65;9.07;;;;;;;;;;5027333;28;20477;-66
2022/10/18 07:40:54;;;;;;;21.42;9.13;;;;;;;;;;5021041;28;20026;-67
2022/10/18 07:43:20;;;;;;;22.27;8.15;;;;;;;;;;5028776;28;20033;-66
2022/10/18 07:45:50;;;;;;;19.33;8.27;;;;;;;;;;5030225;28;20088;-66
2022/10/18 07:48:15;;;;;;;21.80;8.80;;;;;;;;;;5026104;28;20260;-67
2022/10/18 07:50:40;;;;;;;22.07;8.13;;;;;;;;;;5033195;28;20013;-67
2022/10/18 07:53:05;;;;;;;21.27;9.67;;;;;;;;;;5024817;28;20311;-67
2022/10/18 07:55:31;;;;;;;23.50;9.13;;;;;;;;;;5028350;28;20280;-67
2022/10/18 07:57:58;;;;;;;25.30;8.97;;;;;;;;;;5032335;28;20291;-67
2022/10/18 08:00:23;;;;;;;27.90;9.38;;;;;;;;;;5019658;28;20021;-67
2022/10/18 08:02:54;;;;;;;30.70;10.70;;;;;;;;;;5025041;28;20068;-67
2022/10/18 08:05:19;;;;;;;25.35;10.52;;;;;;;;;;5022347;28;20346;-67
2022/10/18 08:07:44;;;;;;;19.93;10.67;;;;;;;;;;5025432;28;20386;-66
2022/10/18 08:10:09;;;;;;;30.13;10.87;;;;;;;;;;5026625;28;20291;-67
2022/10/18 08:12:35;;;;;;;25.92;10.85;;;;;;;;;;5030435;28;20268;-66
2022/10/18 08:15:00;;;;;;;26.73;10.47;;;;;;;;;;5023451;28;20513;-67
2022/10/18 08:17:25;;;;;;;22.50;10.10;;;;;;;;;;5025733;28;20279;-67
2022/10/18 08:19:50;;;;;;;26.10;10.80;;;;;;;;;;5024629;28;20319;-67
2022/10/18 08:22:15;;;;;;;30.25;12.23;;;;;;;;;;5024599;28;20735;-66
2022/10/18 08:24:40;;;;;;;30.57;11.27;;;;;;;;;;5030049;28;20021;-67
2022/10/18 08:27:06;;;;;;;30.50;11.77;;;;;;;;;;5025099;28;20816;-67
2022/10/18 08:29:31;;;;;;;33.88;10.98;;;;;;;;;;5029129;28;20272;-65
2022/10/18 08:31:56;;;;;;;28.27;10.77;;;;;;;;;;5019926;28;20014;-67
2022/10/18 08:34:22;;;;;;;35.03;12.03;;;;;;;;;;5026403;28;20347;-65
2022/10/18 08:36:47;;;;;;;32.43;12.03;;;;;;;;;;5027393;28;20714;-65
2022/10/18 08:39:12;;;;;;;32.10;11.98;;;;;;;;;;5021944;28;20300;-66
2022/10/18 08:41:53;;;;;;;38.37;13.63;;;;;;;;;;5021895;28;20057;-67
2022/10/18 08:44:23;;;;;;;36.83;13.90;;;;;;;;;;5028807;28;20314;-67
2022/10/18 08:46:49;;;;;;;57.83;16.92;;;;;;;;;;5031351;28;20385;-67
2022/10/18 08:49:29;;;;;;;63.70;17.80;;;;;;;;;;5031983;28;20047;-66
2022/10/18 08:51:55;;;;;;;73.13;19.08;;;;;;;;;;5027931;28;20084;-66
2022/10/18 08:54:20;;;;;;;69.03;20.73;;;;;;;;;;5023192;28;20025;-66
2022/10/18 08:56:48;;;;;;;62.58;18.80;;;;;;;;;;5024136;28;20040;-66
2022/10/18 08:59:13;;;;;;;68.28;20.70;;;;;;;;;;5026874;28;20037;-67
2022/10/18 09:01:57;;;;;;;80.18;20.80;;;;;;;;;;5024201;28;20033;-67
2022/10/18 09:04:25;;;;;;;89.95;22.15;;;;;;;;;;5026824;28;20025;-67
2022/10/18 09:06:53;;;;;;;89.95;21.65;;;;;;;;;;5025458;28;20025;-66
2022/10/18 09:09:27;;;;;;;91.15;21.58;;;;;;;;;;5025789;28;20049;-66
2022/10/18 09:12:21;;;;;;;91.93;22.90;;;;;;;;;;5025610;28;20022;-67
2022/10/18 09:14:46;;;;;;;103.63;27.13;;;;;;;;;;5029582;28;20478;-66
2022/10/18 09:17:20;;;;;;;121.80;28.23;;;;;;;;;;5027999;28;20083;-67
2022/10/18 09:19:53;;;;;;;114.55;26.67;;;;;;;;;;5024426;28;20067;-66
2022/10/18 09:22:20;;;;;;;122.88;28.02;;;;;;;;;;5023283;28;20440;-65
2022/10/18 09:25:01;;;;;;;120.60;29.05;;;;;;;;;;5025811;28;20056;-65
2022/10/18 09:27:32;;;;;;;138.93;28.70;;;;;;;;;;5027526;28;20029;-67
2022/10/18 09:30:27;;;;;;;153.88;31.70;;;;;;;;;;5023434;28;20013;-67
2022/10/18 09:32:55;;;;;;;152.10;29.98;;;;;;;;;;5015220;28;20368;-68
2022/10/18 09:35:22;;;;;;;174.43;32.50;;;;;;;;;;5025754;28;20112;-67
2022/10/18 09:37:48;;;;;;;176.45;31.48;;;;;;;;;;5030082;28;20025;-66
2022/10/18 09:40:17;;;;;;;167.82;30.98;;;;;;;;;;5019072;28;20367;-65
2022/10/18 09:42:52;;;;;;;137.68;28.58;;;;;;;;;;5022630;28;20446;-66
2022/10/18 09:45:28;;;;;;;165.20;31.27;;;;;;;;;;5028120;28;20028;-68
2022/10/18 09:48:14;;;;;;;155.30;30.42;;;;;;;;;;5021969;28;20021;-67
2022/10/18 09:50:58;;;;;;;153.88;31.08;;;;;;;;;;5022970;28;20041;-68
2022/10/18 09:53:23;;;;;;;135.82;29.27;;;;;;;;;;5045157;23;20046;-68
2022/10/18 09:56:03;;;;;;;156.30;32.35;;;;;;;;;;4996801;28;20022;-66
2022/10/18 09:58:37;;;;;;;157.60;33.22;;;;;;;;;;5002147;28;20022;-67
2022/10/18 10:01:02;;;;;;;156.40;32.92;;;;;;;;;;5003350;28;20038;-69
2022/10/18 10:03:27;;;;;;;164.80;33.92;;;;;;;;;;5010450;28;20018;-68
2022/10/18 10:06:13;;;;;;;154.13;33.43;;;;;;;;;;5009840;28;20040;-67
2022/10/18 10:09:02;;;;;;;145.93;30.27;;;;;;;;;;5012490;28;20264;-68
2022/10/18 10:11:33;;;;;;;135.50;31.90;;;;;;;;;;5009995;28;20034;-68
2022/10/18 10:14:10;;;;;;;153.52;32.70;;;;;;;;;;5009866;28;20002;-69
2022/10/18 10:16:54;;;;;;;140.38;33.50;;;;;;;;;;5010994;28;20022;-68
2022/10/18 10:19:22;;;;;;;137.50;30.95;;;;;;;;;;5011392;28;20355;-68
2022/10/18 10:21:48;;;;;;;133.70;30.23;;;;;;;;;;5010697;28;20014;-68
2022/10/18 10:24:18;;;;;;;136.35;32.53;;;;;;;;;;5009124;28;20014;-68
2022/10/18 10:26:43;;;;;;;145.68;31.00;;;;;;;;;;5011255;28;20522;-67
2022/10/18 10:29:27;;;;;;;125.57;31.90;;;;;;;;;;5009649;28;20098;-66
2022/10/18 10:32:00;;;;;;;146.52;31.63;;;;;;;;;;5007730;28;20301;-67
2022/10/18 10:34:28;;;;;;;121.70;29.33;;;;;;;;;;5009709;28;20022;-67
2022/10/18 10:36:53;;;;;;;116.03;30.85;;;;;;;;;;5007777;28;20121;-68
2022/10/18 10:39:21;;;;;;;115.43;28.80;;;;;;;;;;5008984;28;20109;-67
2022/10/18 10:41:51;;;;;;;117.80;30.30;;;;;;;;;;5008801;28;20114;-68
2022/10/18 10:44:17;;;;;;;115.77;30.97;;;;;;;;;;5009194;28;20109;-66
2022/10/18 10:46:42;;;;;;;127.13;30.30;;;;;;;;;;5010598;28;20245;-67
2022/10/18 10:49:16;;;;;;;108.55;29.40;;;;;;;;;;5010655;28;20029;-68
2022/10/18 10:51:42;;;;;;;128.18;30.98;;;;;;;;;;5008370;28;20025;-68
2022/10/18 10:54:14;;;;;;;108.88;28.27;;;;;;;;;;5008648;28;20026;-68
2022/10/18 10:56:51;;;;;;;112.45;30.92;;;;;;;;;;5009251;28;20069;-68
2022/10/18 10:59:18;;;;;;;100.72;27.70;;;;;;;;;;5010868;28;20022;-67
2022/10/18 11:01:48;;;;;;;107.13;28.40;;;;;;;;;;5009872;28;20017;-68
2022/10/18 11:04:24;;;;;;;104.15;29.95;;;;;;;;;;5021934;28;20492;-68
2022/10/18 11:07:24;;;;;;;107.70;29.92;;;;;;;;;;5009619;28;20116;-70
2022/10/18 11:09:57;;;;;;;89.30;28.33;;;;;;;;;;4966141;28;20019;-70
2022/10/18 11:12:22;;;;;;;90.78;27.10;;;;;;;;;;5002168;28;20029;-70
2022/10/18 11:14:54;;;;;;;85.93;26.95;;;;;;;;;;5008344;28;20101;-69
2022/10/18 11:17:35;;;;;;;76.57;25.38;;;;;;;;;;5008971;28;20048;-68
2022/10/18 11:20:00;;;;;;;;;;;;;;;;;;5006245;28;20030;-68
2022/10/18 11:22:27;;;;;;;90.45;29.45;;;;;;;;;;5010035;28;19928;-70
2022/10/18 11:24:52;;;;;;;81.05;28.52;;;;;;;;;;5009194;28;20113;-68
2022/10/18 11:27:23;;;;;;;75.07;29.37;;;;;;;;;;5009624;28;20101;-70
2022/10/18 11:29:48;;;;;;;80.30;28.83;;;;;;;;;;5004223;28;20271;-68
2022/10/18 11:32:32;;;;;;;68.60;26.45;;;;;;;;;;5010306;28;20014;-68
2022/10/18 11:35:05;;;;;;;59.85;23.73;;;;;;;;;;5004722;28;20042;-70
2022/10/18 11:37:36;;;;;;;55.97;25.27;;;;;;;;;;5007178;28;20045;-69
2022/10/18 11:40:04;;;;;;;71.80;27.95;;;;;;;;;;5009552;28;20049;-70
2022/10/18 11:42:48;;;;;;;66.75;27.55;;;;;;;;;;5010221;28;20029;-70
2022/10/18 11:45:32;;;;;;;69.50;27.83;;;;;;;;;;5012639;28;20113;-68
2022/10/18 11:48:04;;;;;;;72.78;29.73;;;;;;;;;;5013540;28;20026;-70
2022/10/18 11:50:47;;;;;;;72.80;29.67;;;;;;;;;;5011632;28;20093;-69
2022/10/18 11:53:17;;;;;;;66.00;27.67;;;;;;;;;;5014963;28;20049;-68
2022/10/18 11:55:55;;;;;;;73.20;29.27;;;;;;;;;;5010894;28;20021;-69
2022/10/18 11:58:23;;;;;;;79.05;31.73;;;;;;;;;;5012723;28;20563;-70
2022/10/18 12:01:05;;;;;;;72.25;30.05;;;;;;;;;;5008047;28;20036;-70
2022/10/18 12:03:37;;;;;;;79.82;30.30;;;;;;;;;;5011524;28;20169;-70
2022/10/18 12:06:04;;;;;;;76.72;29.80;;;;;;;;;;5012532;28;20038;-70
2022/10/18 12:08:38;;;;;;;73.15;31.17;;;;;;;;;;5012528;28;20018;-69
2022/10/18 12:11:14;;;;;;;73.60;31.70;;;;;;;;;;5013852;28;20033;-70
2022/10/18 12:13:51;;;;;;;72.53;30.70;;;;;;;;;;5021513;28;20022;-69
2022/10/18 12:16:18;;;;;;;63.58;28.98;;;;;;;;;;5011569;28;20029;-69
2022/10/18 12:19:03;;;;;;;69.00;29.67;;;;;;;;;;5012064;28;20033;-65
2022/10/18 12:21:30;;;;;;;70.85;33.03;;;;;;;;;;5012943;28;20017;-69
2022/10/18 12:23:57;;;;;;;72.22;32.15;;;;;;;;;;5011647;28;20097;-69
2022/10/18 12:26:23;;;;;;;68.95;32.30;;;;;;;;;;5010977;28;20026;-69
2022/10/18 12:28:48;;;;;;;66.40;31.15;;;;;;;;;;5011870;28;20018;-69
2022/10/18 12:31:19;;;;;;;66.28;31.35;;;;;;;;;;5011980;28;20014;-68
2022/10/18 12:33:46;;;;;;;72.30;35.30;;;;;;;;;;5011253;28;20014;-65
2022/10/18 12:36:20;;;;;;;75.35;36.28;;;;;;;;;;5011668;28;20056;-67
2022/10/18 12:38:52;;;;;;;79.63;35.70;;;;;;;;;;5005605;28;20426;-67
2022/10/18 12:41:25;;;;;;;78.78;36.97;;;;;;;;;;5016181;28;20038;-69
2022/10/18 12:44:13;;;;;;;72.60;37.85;;;;;;;;;;5008306;28;20025;-67
2022/10/18 12:46:47;;;;;;;82.22;40.10;;;;;;;;;;5006554;28;20039;-69
2022/10/18 12:49:13;;;;;;;98.60;44.45;;;;;;;;;;5011615;28;20022;-69
2022/10/18 12:51:57;;;;;;;107.07;46.63;;;;;;;;;;5010822;28;20466;-65
2022/10/18 12:54:28;;;;;;;111.75;46.33;;;;;;;;;;5007962;28;20026;-65
2022/10/18 12:56:53;;;;;;;111.88;46.60;;;;;;;;;;5011534;28;20022;-69
2022/10/18 12:59:19;;;;;;;114.13;47.03;;;;;;;;;;5006998;28;20029;-68
2022/10/18 13:01:50;;;;;;;109.93;48.03;;;;;;;;;;5009959;28;20052;-69
2022/10/18 13:04:27;;;;;;;111.80;45.50;;;;;;;;;;5010512;28;20049;-68
2022/10/18 13:07:04;;;;;;;108.07;45.20;;;;;;;;;;5006037;28;20026;-69
2022/10/18 13:09:29;;;;;;;105.45;44.35;;;;;;;;;;5011646;28;20489;-68
2022/10/18 13:12:00;;;;;;;92.30;38.73;;;;;;;;;;5012285;28;20026;-69
2022/10/18 13:14:35;;;;;;;98.72;40.88;;;;;;;;;;5012198;28;20022;-69
2022/10/18 13:17:00;;;;;;;89.07;38.35;;;;;;;;;;5009415;28;20022;-69
2022/10/18 13:19:48;;;;;;;86.75;35.70;;;;;;;;;;5011360;28;20029;-67
2022/10/18 13:22:49;;;;;;;74.40;33.58;;;;;;;;;;5011135;28;20022;-69
2022/10/18 13:25:19;;;;;;;73.22;31.90;;;;;;;;;;5012176;28;20049;-69
2022/10/18 13:27:45;;;;;;;73.30;31.95;;;;;;;;;;5010092;28;20037;-69
2022/10/18 13:30:16;;;;;;;64.43;30.20;;;;;;;;;;5015557;28;20022;-66
2022/10/18 13:32:47;;;;;;;72.50;30.95;;;;;;;;;;5009907;28;20026;-69
2022/10/18 13:35:30;;;;;;;61.63;27.15;;;;;;;;;;5014655;28;20026;-68
2022/10/18 13:37:57;;;;;;;66.78;27.90;;;;;;;;;;5009982;28;20057;-69
2022/10/18 13:40:23;;;;;;;62.88;26.45;;;;;;;;;;5010433;28;20021;-69
2022/10/18 13:42:48;;;;;;;60.10;27.13;;;;;;;;;;5010736;28;20021;-69
2022/10/18 13:45:32;;;;;;;52.73;24.77;;;;;;;;;;5007161;28;20351;-67
2022/10/18 13:48:16;;;;;;;50.50;23.05;;;;;;;;;;5010610;28;20741;-68
2022/10/18 13:50:43;;;;;;;46.15;20.02;;;;;;;;;;5010171;28;20025;-68
2022/10/18 13:53:08;;;;;;;45.33;20.52;;;;;;;;;;5010604;28;20033;-68
2022/10/18 13:55:36;;;;;;;46.50;20.27;;;;;;;;;;5009521;28;20080;-68
2022/10/18 13:58:01;;;;;;;43.33;19.85;;;;;;;;;;5010965;28;20033;-69
2022/10/18 14:00:30;;;;;;;42.95;19.13;;;;;;;;;;5010294;28;20030;-68
2022/10/18 14:03:01;;;;;;;42.85;18.83;;;;;;;;;;5016676;28;20030;-67
2022/10/18 14:05:35;;;;;;;34.70;19.67;;;;;;;;;;5010325;28;20073;-68
2022/10/18 14:08:02;;;;;;;46.83;18.33;;;;;;;;;;5007474;28;20049;-68
2022/10/18 14:10:34;;;;;;;44.92;19.10;;;;;;;;;;5009137;28;20038;-64
2022/10/18 14:13:01;;;;;;;33.03;17.00;;;;;;;;;;5007262;28;20033;-68
2022/10/18 14:15:30;;;;;;;39.08;16.40;;;;;;;;;;5009391;28;20033;-68
2022/10/18 14:18:10;;;;;;;36.08;16.75;;;;;;;;;;5008624;28;20030;-68
2022/10/18 14:20:40;;;;;;;35.28;17.15;;;;;;;;;;5009870;28;20387;-66
2022/10/18 14:23:22;;;;;;;36.33;16.27;;;;;;;;;;5009444;28;20633;-69
2022/10/18 14:25:47;;;;;;;34.20;16.23;;;;;;;;;;5003898;28;20041;-68
2022/10/18 14:28:19;;;;;;;38.88;16.20;;;;;;;;;;5011089;28;20153;-68
2022/10/18 14:30:52;;;;;;;30.00;15.45;;;;;;;;;;5003067;28;20022;-68